Time;durP1;ratioP1;P1;durP2;ratioP2;P2;SDS_P1;SDS_P2;PMS_P1;PMS_P2;Temp;Humidity;BMP_temperature;BMP_pressure;BME280_temperature;BME280_humidity;BME280_pressure;Samples;Min_cycle;Max_cycle;Signal;HPM_P1;HPM_P2
2022/01/24 00:01:42;;;;;;;10.43;6.63;;;;;;;20.80;33.35;103355.28;7307733;19;130921;-66
2022/01/24 00:04:09;;;;;;;9.73;6.25;;;;;;;20.78;33.55;103351.88;7311990;19;131152;-66
2022/01/24 00:06:36;;;;;;;8.88;5.80;;;;;;;20.75;33.43;103346.66;7308805;19;128845;-67
2022/01/24 00:09:04;;;;;;;13.30;6.40;;;;;;;20.72;33.64;103347.94;7312890;19;129964;-66
2022/01/24 00:17:04;;;;;;;10.02;6.05;;;;;;;20.65;33.92;103354.50;7312128;19;131248;-66
2022/01/24 00:27:48;;;;;;;11.10;6.55;;;;;;;20.56;33.52;103357.41;7316280;19;130253;-66
2022/01/24 00:30:15;;;;;;;11.45;5.85;;;;;;;20.54;33.73;103355.91;7317984;19;129011;-66
2022/01/24 00:32:42;;;;;;;10.07;6.30;;;;;;;20.53;33.58;103357.84;7316656;19;130783;-65
2022/01/24 00:35:10;;;;;;;9.15;5.75;;;;;;;20.51;33.69;103350.72;7318589;19;130784;-66
2022/01/24 00:37:37;;;;;;;9.50;6.22;;;;;;;20.50;34.08;103351.78;7315600;19;128915;-66
2022/01/24 00:40:05;;;;;;;8.45;6.07;;;;;;;20.47;33.97;103347.50;7318506;19;128732;-66
2022/01/24 00:42:46;;;;;;;9.73;5.88;;;;;;;20.47;33.81;103349.44;7316245;19;130707;-66
2022/01/24 00:55:46;;;;;;;9.68;5.53;;;;;;;20.38;33.78;103348.72;7315632;19;130652;-66
2022/01/24 00:58:13;;;;;;;7.88;5.72;;;;;;;20.36;33.59;103353.59;7317032;19;129046;-66
2022/01/24 01:00:40;;;;;;;9.80;6.35;;;;;;;20.35;33.99;103351.88;7313511;19;131333;-66
2022/01/24 01:03:07;;;;;;;9.07;5.78;;;;;;;20.34;33.75;103344.59;7316480;19;130824;-66
2022/01/24 01:05:51;;;;;;;9.80;6.00;;;;;;;20.34;33.92;103347.38;7316863;19;130684;-66
2022/01/24 01:19:05;;;;;;;7.88;5.30;;;;;;;20.24;34.08;103342.16;7313107;19;129015;-67
2022/01/24 01:21:33;;;;;;;8.40;5.47;;;;;;;20.25;34.10;103341.97;7314040;19;129157;-66
2022/01/24 01:24:00;;;;;;;7.95;5.40;;;;;;;20.23;33.83;103346.84;7315676;19;130495;-66
2022/01/24 01:26:37;;;;;;;9.60;5.30;;;;;;;20.21;33.68;103343.41;7313512;19;134831;-66
2022/01/24 01:29:10;;;;;;;8.07;5.63;;;;;;;20.22;33.84;103355.41;7314280;19;131797;-66
2022/01/24 01:31:57;;;;;;;8.48;5.60;;;;;;;20.21;33.53;103354.53;7313719;19;128998;-66
2022/01/24 01:56:08;;;;;;;7.10;4.95;;;;;;;20.09;33.83;103343.09;7315697;19;130693;-66
2022/01/24 01:58:36;;;;;;;8.18;5.30;;;;;;;20.08;34.02;103352.47;7314150;19;130507;-66
2022/01/24 02:01:04;;;;;;;8.07;4.95;;;;;;;20.07;33.80;103349.88;7315092;19;128987;-66
2022/01/24 02:03:31;;;;;;;7.78;4.78;;;;;;;20.08;33.87;103348.81;7317007;19;128822;-66
2022/01/24 02:05:58;;;;;;;6.60;4.90;;;;;;;20.06;33.94;103349.03;7314367;19;131421;-66
2022/01/24 02:08:27;;;;;;;7.05;5.32;;;;;;;20.06;33.91;103348.19;7318028;19;130515;-66
2022/01/24 02:10:55;;;;;;;7.53;5.32;;;;;;;20.05;33.61;103346.47;7313119;19;128992;-66
2022/01/24 02:13:23;;;;;;;6.38;5.22;;;;;;;20.04;33.97;103347.50;7315458;19;128889;-66
2022/01/24 02:16:02;;;;;;;7.60;4.43;;;;;;;20.03;34.08;103354.13;7313705;19;130608;-66
2022/01/24 02:18:48;;;;;;;5.90;4.90;;;;;;;20.01;33.68;103345.97;7313860;19;130710;-66
2022/01/24 02:21:28;;;;;;;5.47;4.78;;;;;;;20.02;33.70;103349.63;7316342;19;129471;-65
2022/01/24 02:23:58;;;;;;;5.70;4.65;;;;;;;19.99;33.93;103343.41;7314134;19;130928;-65
2022/01/24 02:26:25;;;;;;;6.00;4.38;;;;;;;19.97;33.85;103351.03;7315390;19;131526;-66
2022/01/24 02:29:20;;;;;;;6.70;5.00;;;;;;;19.96;33.97;103349.31;7313240;19;131536;-66
2022/01/24 02:31:48;;;;;;;6.03;4.53;;;;;;;19.95;33.85;103349.50;7313337;19;129860;-66
2022/01/24 02:34:18;;;;;;;8.25;5.32;;;;;;;19.94;33.81;103348.63;7314197;19;130594;-66
2022/01/24 02:36:44;;;;;;;6.55;4.95;;;;;;;19.93;33.88;103344.16;7312769;19;131166;-66
2022/01/24 02:39:44;;;;;;;7.20;4.95;;;;;;;19.94;33.68;103345.00;7313764;19;130608;-66
2022/01/24 02:50:49;;;;;;;5.60;4.50;;;;;;;19.87;33.99;103342.16;7312178;19;130591;-66
2022/01/24 02:53:16;;;;;;;6.20;4.80;;;;;;;19.86;34.11;103339.59;7313645;19;129358;-65
2022/01/24 02:55:43;;;;;;;6.32;4.63;;;;;;;19.84;33.98;103350.88;7312146;19;128965;-66
2022/01/24 02:58:10;;;;;;;6.78;5.00;;;;;;;19.84;33.75;103354.53;7312246;19;130940;-66
2022/01/24 03:00:38;;;;;;;5.78;4.40;;;;;;;19.83;33.97;103347.25;7314179;19;130759;-66
2022/01/24 03:03:06;;;;;;;4.53;3.92;;;;;;;19.82;34.07;103348.31;7313134;19;130108;-65
2022/01/24 03:05:33;;;;;;;6.30;4.47;;;;;;;19.82;33.75;103341.88;7315790;19;130858;-66
2022/01/24 03:08:00;;;;;;;7.07;5.30;;;;;;;19.81;34.22;103342.97;7312526;19;131400;-66
2022/01/24 03:10:34;;;;;;;6.63;4.43;;;;;;;19.80;34.11;103330.13;7314073;19;130447;-66
2022/01/24 03:15:53;;;;;;;5.35;4.32;;;;;;;19.77;34.18;103325.78;7313538;19;128895;-66
2022/01/24 03:18:20;;;;;;;5.18;4.40;;;;;;;19.78;34.22;103329.44;7313388;19;131397;-66
2022/01/24 03:20:48;;;;;;;6.40;4.68;;;;;;;19.76;33.76;103324.06;7310760;19;130465;-66
2022/01/24 03:23:17;;;;;;;6.68;4.57;;;;;;;19.76;34.02;103320.44;7312293;19;128855;-67
2022/01/24 03:25:44;;;;;;;5.72;4.00;;;;;;;19.75;33.87;103325.16;7310547;19;130086;-66
2022/01/24 03:28:12;;;;;;;6.90;4.75;;;;;;;19.74;34.17;103312.31;7314519;19;130746;-66
2022/01/24 03:30:39;;;;;;;6.55;4.60;;;;;;;19.73;34.21;103313.38;7309941;19;130787;-66
2022/01/24 03:33:08;;;;;;;4.97;4.18;;;;;;;19.72;33.95;103308.00;7312514;19;129471;-66
2022/01/24 03:35:36;;;;;;;4.88;4.25;;;;;;;19.72;33.96;103308.88;7311476;19;130059;-66
2022/01/24 03:38:03;;;;;;;5.78;4.20;;;;;;;19.70;33.99;103305.44;7312894;19;131315;-66
2022/01/24 03:40:30;;;;;;;5.25;4.10;;;;;;;19.71;33.99;103311.84;7310197;19;135438;-66
2022/01/24 03:42:57;;;;;;;6.20;4.53;;;;;;;19.69;34.07;103303.72;7310182;19;129461;-66
2022/01/24 03:45:37;;;;;;;4.97;4.15;;;;;;;19.68;33.88;103308.41;7313491;19;128947;-66
2022/01/24 03:48:09;;;;;;;5.80;4.30;;;;;;;19.67;33.86;103303.91;7309924;19;130973;-66
2022/01/24 03:50:37;;;;;;;6.35;4.47;;;;;;;19.66;34.07;103310.53;7313130;19;131195;-66
2022/01/24 03:53:04;;;;;;;5.70;4.45;;;;;;;19.65;34.04;103311.56;7309176;19;128847;-66
2022/01/24 03:55:33;;;;;;;6.75;4.50;;;;;;;19.65;34.09;103303.25;7312401;19;128838;-66
2022/01/24 03:58:01;;;;;;;5.10;4.13;;;;;;;19.64;33.85;103307.06;7314147;19;131429;-66
2022/01/24 04:00:29;;;;;;;4.95;3.90;;;;;;;19.64;34.17;103311.75;7318170;19;130562;-66
2022/01/24 04:02:57;;;;;;;4.82;4.10;;;;;;;19.63;34.03;103307.28;7319819;19;128929;-66
2022/01/24 04:05:23;;;;;;;5.35;4.47;;;;;;;19.63;34.20;103299.78;7317279;19;128637;-66
2022/01/24 04:07:50;;;;;;;6.90;4.13;;;;;;;19.61;34.10;103301.06;7319726;19;130684;-66
2022/01/24 04:10:19;;;;;;;6.63;4.28;;;;;;;19.60;34.10;103305.72;7315862;19;130821;-66
2022/01/24 04:12:49;;;;;;;5.82;4.10;;;;;;;19.58;34.24;103302.28;7320119;19;128928;-66
2022/01/24 04:23:40;;;;;;;6.18;4.30;;;;;;;19.54;34.24;103306.53;7316885;19;128813;-66
2022/01/24 04:26:07;;;;;;;5.72;4.45;;;;;;;19.54;33.79;103306.53;7319854;19;129318;-66
2022/01/24 04:28:33;;;;;;;5.25;4.28;;;;;;;19.52;33.89;103309.47;7315262;19;130602;-66
2022/01/24 04:31:00;;;;;;;5.95;4.60;;;;;;;19.51;34.22;103298.59;7318614;19;130788;-66
2022/01/24 04:33:27;;;;;;;5.15;4.20;;;;;;;19.51;34.23;103295.81;7315822;19;129270;-66
2022/01/24 04:35:56;;;;;;;5.38;3.92;;;;;;;19.49;34.30;103298.78;7317676;19;133930;-66
2022/01/24 04:38:24;;;;;;;6.65;4.68;;;;;;;19.50;34.28;103302.41;7315782;19;130686;-66
2022/01/24 04:40:56;;;;;;;4.45;3.95;;;;;;;19.49;34.19;103303.47;7314471;19;131424;-65
2022/01/24 04:43:33;;;;;;;6.75;4.75;;;;;;;19.49;33.85;103298.78;7319399;19;128969;-66
2022/01/24 04:46:29;;;;;;;5.22;4.05;;;;;;;19.48;33.88;103301.75;7314011;19;129023;-66
2022/01/24 04:56:57;;;;;;;4.68;3.72;;;;;;;19.56;33.96;103318.31;7319069;19;129323;-66
2022/01/24 04:59:23;;;;;;;4.32;3.65;;;;;;;19.65;33.67;103319.91;7314723;19;130605;-66
2022/01/24 05:01:50;;;;;;;4.55;3.75;;;;;;;19.78;33.55;103312.78;7317605;19;130717;-66
2022/01/24 05:04:17;;;;;;;5.07;3.88;;;;;;;19.93;33.38;103321.06;7314178;19;129865;-66
2022/01/24 05:06:44;;;;;;;5.03;3.63;;;;;;;20.07;33.58;103317.41;7317215;19;128834;-66
2022/01/24 05:09:11;;;;;;;5.00;3.35;;;;;;;20.20;33.31;103316.66;7318829;19;133055;-66
2022/01/24 05:11:47;;;;;;;4.95;3.40;;;;;;;20.35;33.12;103324.06;7317609;19;130736;-65
2022/01/24 05:25:17;;;;;;;4.07;2.97;;;;;;;21.28;31.97;103320.28;7315802;19;128775;-66
2022/01/24 05:27:44;;;;;;;4.07;3.30;;;;;;;21.44;31.85;103319.91;7309455;19;130104;-66
2022/01/24 05:30:12;;;;;;;4.95;3.13;;;;;;;21.59;31.45;103310.59;7311299;19;130614;-66
2022/01/24 05:32:39;;;;;;;6.93;3.53;;;;;;;21.70;31.45;103315.56;7316572;19;130370;-66
2022/01/24 05:35:06;;;;;;;3.47;3.00;;;;;;;21.76;30.94;103314.72;7313985;19;128903;-66
2022/01/24 05:37:32;;;;;;;4.40;3.00;;;;;;;21.80;31.38;103316.00;7315198;19;129192;-66
2022/01/24 05:40:00;;;;;;;3.95;3.17;;;;;;;21.81;30.88;103314.94;7313490;19;131401;-66
2022/01/24 05:42:26;;;;;;;3.63;3.05;;;;;;;21.81;31.02;103311.31;7314258;19;130427;-65
2022/01/24 05:44:53;;;;;;;3.83;2.90;;;;;;;21.79;31.06;103308.72;7313553;19;128933;-66
2022/01/24 05:47:20;;;;;;;3.75;3.20;;;;;;;21.75;30.86;103313.00;7314020;19;129777;-65
2022/01/24 05:49:46;;;;;;;4.47;3.03;;;;;;;21.71;31.24;103305.28;7315819;19;130681;-66
2022/01/24 05:52:13;;;;;;;4.40;3.08;;;;;;;21.66;31.14;103309.56;7310488;19;130323;-66
2022/01/24 05:54:40;;;;;;;3.30;2.78;;;;;;;21.60;31.31;103301.16;7313322;19;128948;-66
2022/01/24 05:57:08;;;;;;;3.97;3.10;;;;;;;21.53;30.99;103309.50;7309836;19;128942;-66
2022/01/24 05:59:35;;;;;;;3.92;2.95;;;;;;;21.47;31.61;103305.59;7314709;19;130693;-66
2022/01/24 06:02:03;;;;;;;3.88;3.03;;;;;;;21.41;31.41;103311.13;7311326;19;130607;-66
2022/01/24 06:04:30;;;;;;;3.40;3.10;;;;;;;21.34;31.64;103314.75;7313462;19;129880;-66
2022/01/24 06:06:57;;;;;;;3.50;3.03;;;;;;;21.28;31.76;103306.38;7313900;19;128819;-66
2022/01/24 06:09:23;;;;;;;3.67;2.70;;;;;;;21.21;31.40;103306.34;7312604;19;130768;-66
2022/01/24 06:11:51;;;;;;;3.38;3.05;;;;;;;21.15;31.53;103301.56;7312149;19;130697;-65
2022/01/24 06:14:18;;;;;;;3.42;2.90;;;;;;;21.09;31.76;103305.19;7312433;19;131763;-66
2022/01/24 06:16:45;;;;;;;3.83;3.13;;;;;;;21.02;31.85;103307.94;7314465;19;128969;-66
2022/01/24 06:19:12;;;;;;;6.35;3.10;;;;;;;20.96;32.05;103309.63;7300646;19;131242;-65
2022/01/24 06:21:40;;;;;;;4.22;2.90;;;;;;;20.92;31.90;103313.03;7305001;19;130386;-66
2022/01/24 06:24:08;;;;;;;3.17;2.80;;;;;;;20.86;32.14;103309.97;7306158;19;129012;-66
2022/01/24 06:26:34;;;;;;;4.57;3.40;;;;;;;20.82;32.16;103313.38;7307082;19;129035;-65
2022/01/24 06:29:02;;;;;;;4.00;2.90;;;;;;;20.79;32.40;103309.09;7304850;19;130924;-66
2022/01/24 06:31:29;;;;;;;3.40;3.10;;;;;;;20.78;32.42;103315.72;7306428;19;131238;-66
2022/01/24 06:33:56;;;;;;;4.22;3.03;;;;;;;20.79;32.38;103311.88;7307980;19;131390;-66
2022/01/24 06:36:24;;;;;;;3.47;3.03;;;;;;;20.81;32.23;103318.06;7305706;19;129873;-66
2022/01/24 06:38:51;;;;;;;3.88;3.05;;;;;;;20.87;32.30;103316.38;7304294;19;130632;-65
2022/01/24 06:41:24;;;;;;;4.72;3.15;;;;;;;20.94;32.11;103322.00;7300859;19;130592;-68
2022/01/24 06:43:50;;;;;;;4.28;3.28;;;;;;;21.03;31.87;103326.38;7306002;19;128788;-66
2022/01/24 06:46:17;;;;;;;3.20;2.53;;;;;;;21.16;31.99;103326.44;7302512;19;129885;-66
2022/01/24 06:48:45;;;;;;;4.30;2.75;;;;;;;21.34;31.90;103325.91;7307555;19;130872;-66
2022/01/24 06:51:12;;;;;;;2.63;2.42;;;;;;;21.52;31.59;103318.91;7303666;19;130844;-66
2022/01/24 06:53:40;;;;;;;3.35;2.72;;;;;;;21.70;31.23;103323.91;7304938;19;131715;-66
2022/01/24 06:56:08;;;;;;;4.75;2.85;;;;;;;21.89;31.11;103330.63;7303213;19;130292;-66
2022/01/24 06:58:35;;;;;;;3.40;2.63;;;;;;;22.07;31.08;103326.38;7305873;19;130782;-66
2022/01/24 07:01:03;;;;;;;2.90;2.60;;;;;;;22.25;30.78;103336.94;7302587;19;131071;-66
2022/01/24 07:03:30;;;;;;;3.10;2.40;;;;;;;22.39;30.22;103330.31;7308068;19;129869;-66
2022/01/24 07:05:57;;;;;;;3.25;2.30;;;;;;;22.52;30.61;103325.81;7312651;19;131116;-65
2022/01/24 07:08:24;;;;;;;5.28;2.70;;;;;;;22.64;30.19;103332.47;7311986;19;131106;-66
2022/01/24 07:10:51;;;;;;;4.15;2.63;;;;;;;22.76;29.80;103341.03;7311833;19;130661;-66
2022/01/24 07:13:21;;;;;;;4.22;2.78;;;;;;;22.85;30.00;103334.13;7308428;19;129679;-66
2022/01/24 07:15:54;;;;;;;3.80;2.22;;;;;;;22.94;29.57;103343.16;7313909;19;130053;-66
2022/01/24 07:20:55;;;;;;;3.47;2.47;;;;;;;23.07;29.63;103333.94;7312306;19;130921;-66
2022/01/24 07:23:21;;;;;;;2.42;2.22;;;;;;;23.14;29.93;103331.13;7310091;19;129024;-66
2022/01/24 07:25:53;;;;;;;3.58;2.50;;;;;;;23.16;29.78;103328.94;7312827;19;129597;-66
2022/01/24 07:28:20;;;;;;;3.30;2.50;;;;;;;23.17;29.44;103327.88;7312470;19;131522;-66
2022/01/24 07:30:47;;;;;;;5.75;2.30;;;;;;;23.14;29.37;103328.34;7310264;19;130633;-65
2022/01/24 07:33:14;;;;;;;2.80;2.30;;;;;;;23.08;29.46;103326.41;7318085;19;128985;-65
2022/01/24 07:35:43;;;;;;;3.70;2.67;;;;;;;22.98;29.38;103330.50;7316892;19;129617;-65
2022/01/24 07:38:11;;;;;;;5.95;2.78;;;;;;;22.89;29.13;103326.22;7320661;19;130944;-64
2022/01/24 07:40:41;;;;;;;5.25;2.67;;;;;;;22.81;29.05;103330.06;7317375;19;130690;-65
2022/01/24 07:43:12;;;;;;;5.72;3.08;;;;;;;22.69;29.46;103332.66;7319667;19;131225;-65
2022/01/24 07:45:43;;;;;;;7.97;2.67;;;;;;;22.61;29.58;103338.47;7316938;19;128825;-65
2022/01/24 07:48:10;;;;;;;5.90;2.40;;;;;;;22.51;29.53;103333.31;7317941;19;130711;-65
2022/01/24 07:50:40;;;;;;;4.25;2.83;;;;;;;22.43;29.79;103339.94;7319664;19;130564;-65
2022/01/24 07:53:08;;;;;;;5.03;2.67;;;;;;;22.35;29.91;103342.97;7317667;19;128914;-65
2022/01/24 07:55:36;;;;;;;10.48;2.97;;;;;;;22.27;29.94;103343.19;7320035;19;129044;-66
2022/01/24 07:58:03;;;;;;;8.43;3.00;;;;;;;22.19;29.82;103338.63;7317188;19;130570;-65
2022/01/24 08:00:30;;;;;;;8.57;3.42;;;;;;;22.12;30.25;103341.41;7319086;19;130560;-65
2022/01/24 08:02:59;;;;;;;6.43;3.38;;;;;;;22.06;29.94;103346.97;7316742;19;128968;-65
2022/01/24 08:05:27;;;;;;;8.60;3.17;;;;;;;21.98;30.12;103346.06;7319427;19;128835;-64
2022/01/24 08:07:54;;;;;;;10.75;3.33;;;;;;;21.92;29.95;103346.03;7319992;19;130604;-64
2022/01/24 08:10:21;;;;;;;8.50;3.50;;;;;;;21.85;30.30;103345.19;7318088;19;130708;-64
2022/01/24 08:12:48;;;;;;;7.43;3.10;;;;;;;21.78;30.21;103343.25;7320867;19;130690;-65
2022/01/24 08:15:15;;;;;;;8.75;3.75;;;;;;;21.75;30.05;103351.16;7317941;19;130659;-65
2022/01/24 08:17:42;;;;;;;7.50;3.05;;;;;;;21.67;30.51;103349.41;7310488;19;131931;-64
2022/01/24 08:20:11;;;;;;;6.68;3.38;;;;;;;21.63;30.44;103360.09;7315382;19;130672;-64
2022/01/24 08:22:58;;;;;;;7.75;3.42;;;;;;;21.58;30.79;103356.22;7317656;19;129580;-65
2022/01/24 08:25:26;;;;;;;6.10;3.55;;;;;;;21.53;30.57;103354.06;7315221;19;128997;-64
2022/01/24 08:27:53;;;;;;;6.47;2.95;;;;;;;21.49;30.84;103356.41;7316794;19;130864;-64
2022/01/24 08:30:26;;;;;;;5.82;3.45;;;;;;;21.46;30.79;103359.56;7319936;19;131860;-64
2022/01/24 08:32:53;;;;;;;6.60;3.15;;;;;;;21.42;30.98;103362.97;7316387;19;129642;-64
2022/01/24 08:35:20;;;;;;;4.00;2.83;;;;;;;21.38;31.11;103362.53;7316005;19;129307;-64
2022/01/24 08:37:47;;;;;;;6.30;3.20;;;;;;;21.34;30.60;103367.66;7313154;19;130565;-64
2022/01/24 08:40:22;;;;;;;9.13;3.47;;;;;;;21.30;30.81;103371.91;7318017;19;130617;-64
2022/01/24 08:43:10;;;;;;;9.20;3.33;;;;;;;21.27;31.22;103363.13;7314531;19;129029;-64
2022/01/24 08:45:58;;;;;;;4.55;2.90;;;;;;;21.21;31.24;103368.44;7316726;19;128971;-64
2022/01/24 08:48:25;;;;;;;8.00;3.05;;;;;;;21.19;31.20;103364.13;7318608;19;130583;-64
2022/01/24 08:50:54;;;;;;;10.10;3.10;;;;;;;21.15;31.21;103368.38;7315268;19;130573;-64
2022/01/24 08:53:33;;;;;;;5.47;2.85;;;;;;;21.12;31.49;103366.88;7318338;19;128742;-64
2022/01/24 08:56:04;;;;;;;3.13;2.40;;;;;;;21.10;31.37;103366.22;7316760;19;129262;-64
2022/01/24 08:58:32;;;;;;;9.35;3.33;;;;;;;21.07;31.37;103369.41;7317406;19;130593;-64
2022/01/24 09:00:59;;;;;;;4.40;2.78;;;;;;;21.04;31.47;103376.25;7316934;19;131451;-64
2022/01/24 09:03:29;;;;;;;7.65;2.80;;;;;;;21.02;31.36;103369.16;7315661;19;129075;-64
2022/01/24 09:05:59;;;;;;;9.82;3.70;;;;;;;20.99;31.45;103372.34;7318899;19;129409;-64
2022/01/24 09:08:26;;;;;;;10.23;3.30;;;;;;;20.95;31.21;103377.47;7312166;19;130889;-64
2022/01/24 09:10:54;;;;;;;10.43;3.53;;;;;;;20.89;31.44;103376.34;7315719;19;132017;-64
2022/01/24 09:13:21;;;;;;;14.80;4.28;;;;;;;20.87;31.57;103367.34;7312216;19;129762;-64
2022/01/24 09:15:49;;;;;;;6.97;3.63;;;;;;;20.85;31.46;103371.41;7316689;19;129315;-64
2022/01/24 09:18:16;;;;;;;13.13;4.32;;;;;;;20.82;30.94;103381.00;7312909;19;130429;-64
2022/01/24 09:20:43;;;;;;;12.13;4.75;;;;;;;20.79;31.00;103380.53;7314669;19;130485;-64
2022/01/24 09:23:14;;;;;;;14.40;4.18;;;;;;;20.80;30.98;103388.66;7318390;19;128748;-64
2022/01/24 09:25:41;;;;;;;11.15;4.15;;;;;;;20.81;30.74;103390.41;7315059;19;129114;-64
2022/01/24 09:28:08;;;;;;;9.48;3.92;;;;;;;20.86;30.81;103379.53;7317201;19;130332;-64
2022/01/24 09:30:35;;;;;;;9.60;3.80;;;;;;;20.92;31.16;103383.44;7315375;19;131287;-64
2022/01/24 09:33:03;;;;;;;17.25;4.30;;;;;;;20.99;30.85;103384.31;7317258;19;128809;-64
2022/01/24 09:35:30;;;;;;;13.60;3.80;;;;;;;21.05;30.83;103386.31;7318226;19;128781;-64
2022/01/24 09:37:57;;;;;;;9.13;3.13;;;;;;;21.12;30.76;103379.91;7315375;19;130513;-64
2022/01/24 09:40:25;;;;;;;10.90;3.65;;;;;;;21.16;30.49;103384.91;7317839;19;130608;-64
2022/01/24 09:42:53;;;;;;;10.27;3.47;;;;;;;21.21;30.71;103379.56;7312541;19;128987;-64
2022/01/24 09:45:19;;;;;;;9.85;3.28;;;;;;;21.28;30.50;103384.31;7317660;19;129547;-64
2022/01/24 09:47:46;;;;;;;7.93;3.20;;;;;;;21.32;30.64;103386.50;7313300;19;130576;-64
2022/01/24 09:50:16;;;;;;;8.73;3.50;;;;;;;21.36;30.80;103381.38;7317060;19;132335;-64
2022/01/24 09:52:46;;;;;;;10.55;2.90;;;;;;;21.41;30.68;103380.75;7314862;19;129960;-64
2022/01/24 09:55:15;;;;;;;11.18;3.28;;;;;;;21.42;30.79;103374.97;7313910;19;129784;-64
2022/01/24 09:57:42;;;;;;;10.77;2.88;;;;;;;21.45;30.53;103374.56;7313481;19;130920;-64
2022/01/24 10:00:12;;;;;;;11.50;3.08;;;;;;;21.49;30.65;103375.91;7314823;19;133137;-64
2022/01/24 10:02:39;;;;;;;11.35;3.35;;;;;;;21.52;30.64;103374.63;7314808;19;129003;-64
2022/01/24 10:05:20;;;;;;;12.88;3.00;;;;;;;21.56;30.35;103375.06;7313840;19;129019;-64
2022/01/24 10:07:55;;;;;;;10.82;3.10;;;;;;;21.59;30.47;103380.22;7315545;19;131784;-64
2022/01/24 10:10:58;;;;;;;10.80;3.00;;;;;;;21.62;30.53;103385.38;7316141;19;130758;-64
2022/01/24 10:16:33;;;;;;;7.20;3.00;;;;;;;21.64;30.39;103384.09;7316301;19;128656;-64
2022/01/24 10:19:16;;;;;;;5.70;3.03;;;;;;;21.65;30.66;103380.25;7313834;19;130602;-64
2022/01/24 10:22:03;;;;;;;5.30;2.47;;;;;;;21.64;30.68;103384.09;7313671;19;130727;-64
2022/01/24 10:24:38;;;;;;;6.75;2.72;;;;;;;21.66;30.19;103386.72;7316639;19;129138;-64
2022/01/24 10:27:10;;;;;;;5.47;2.80;;;;;;;21.64;30.54;103384.09;7312402;19;128835;-63
2022/01/24 10:29:56;;;;;;;6.72;3.08;;;;;;;21.65;30.41;103373.84;7315383;19;130389;-64
2022/01/24 10:32:30;;;;;;;5.77;2.97;;;;;;;21.64;30.48;103377.69;7313698;19;130564;-64
2022/01/24 10:35:19;;;;;;;8.93;2.85;;;;;;;21.63;30.25;103373.19;7314955;19;129018;-64
2022/01/24 10:37:49;;;;;;;6.38;2.92;;;;;;;21.60;30.70;103374.44;7315354;19;128867;-64
2022/01/24 10:40:31;;;;;;;5.18;2.92;;;;;;;21.60;30.74;103365.25;7311816;19;130645;-64
2022/01/24 10:43:21;;;;;;;7.38;2.83;;;;;;;21.56;30.78;103375.06;7313124;19;128710;-64
2022/01/24 10:45:49;;;;;;;7.38;3.15;;;;;;;21.50;30.54;103360.91;7315971;19;129383;-64
2022/01/24 10:48:26;;;;;;;7.38;3.10;;;;;;;21.48;31.00;103359.34;7313517;19;128932;-64
2022/01/24 10:51:13;;;;;;;;;;;;;;;21.42;30.81;103362.97;7316199;19;131241;-64
2022/01/24 10:53:51;;;;;;;10.63;2.75;;;;;;;21.42;30.73;103357.41;7311983;19;131425;-64
2022/01/24 10:56:48;;;;;;;9.30;2.63;;;;;;;21.38;30.92;103354.19;7315407;19;128791;-64
2022/01/24 10:59:22;;;;;;;8.75;2.75;;;;;;;21.36;30.98;103359.09;7310665;19;132323;-64
2022/01/24 11:01:54;;;;;;;4.68;2.78;;;;;;;21.33;30.72;103348.34;7313055;19;135636;-63
2022/01/24 11:04:26;;;;;;;5.68;3.00;;;;;;;21.29;30.87;103342.34;7315191;19;130623;-64
2022/01/24 11:07:01;;;;;;;6.53;3.00;;;;;;;21.27;30.88;103338.06;7311590;19;128937;-64
2022/01/24 11:09:34;;;;;;;6.95;2.97;;;;;;;21.25;31.38;103334.63;7315095;19;128911;-64
2022/01/24 11:12:14;;;;;;;3.78;2.53;;;;;;;21.23;31.38;103332.06;7312183;19;131963;-63
2022/01/24 11:14:45;;;;;;;6.03;3.10;;;;;;;21.19;31.30;103334.34;7312748;19;130573;-64
2022/01/24 11:17:18;;;;;;;3.63;2.55;;;;;;;21.17;31.21;103322.56;7315266;19;130095;-63
2022/01/24 11:19:54;;;;;;;6.32;2.58;;;;;;;21.14;31.34;103325.78;7312193;19;128832;-64
2022/01/24 11:22:26;;;;;;;4.85;2.60;;;;;;;21.13;31.22;103321.28;7313281;19;130496;-64
2022/01/24 11:25:00;;;;;;;7.35;2.95;;;;;;;21.10;31.55;103316.13;7309802;19;130557;-63
2022/01/24 11:27:43;;;;;;;7.13;3.10;;;;;;;21.09;31.52;103319.97;7313255;19;128715;-63
2022/01/24 11:30:13;;;;;;;4.68;2.78;;;;;;;21.08;31.43;103318.25;7313720;19;128851;-64
2022/01/24 11:32:48;;;;;;;6.53;2.70;;;;;;;21.03;31.43;103318.84;7312056;19;130621;-64
2022/01/24 11:35:33;;;;;;;6.20;2.40;;;;;;;21.02;31.67;103322.69;7313642;19;130537;-64
2022/01/24 11:38:00;;;;;;;3.95;2.88;;;;;;;21.01;31.51;103317.34;7308897;19;132733;-63
2022/01/24 11:40:44;;;;;;;4.00;2.40;;;;;;;21.01;31.54;103315.41;7308423;19;129164;-64
2022/01/24 11:43:54;;;;;;;4.20;2.50;;;;;;;21.01;31.31;103314.56;7310006;19;131581;-64
2022/01/24 11:46:42;;;;;;;8.98;2.42;;;;;;;21.05;31.46;103318.63;7305461;19;131237;-64
2022/01/24 11:49:10;;;;;;;4.65;3.10;;;;;;;21.07;31.22;103308.16;7308544;19;129662;-63
2022/01/24 11:51:38;;;;;;;4.18;2.70;;;;;;;21.11;31.51;103317.84;7311479;19;130576;-63
2022/01/24 11:57:24;;;;;;;3.05;2.65;;;;;;;21.17;31.41;103305.88;7313915;19;130938;-63
2022/01/24 12:00:12;;;;;;;7.95;3.08;;;;;;;21.20;31.57;103311.03;7310077;19;128854;-64
2022/01/24 12:02:44;;;;;;;4.72;2.75;;;;;;;21.24;31.52;103307.84;7311905;19;128812;-64
2022/01/24 12:05:33;;;;;;;3.85;2.80;;;;;;;21.26;31.28;103300.16;7313386;19;130702;-64
2022/01/24 12:08:04;;;;;;;5.75;2.85;;;;;;;21.27;31.40;103294.34;7309875;19;130635;-63
2022/01/24 12:10:51;;;;;;;4.32;2.90;;;;;;;21.28;31.22;103287.72;7312795;19;129681;-63
2022/01/24 12:13:25;;;;;;;7.28;2.60;;;;;;;21.30;31.02;103287.50;7310661;19;129033;-64
2022/01/24 12:15:59;;;;;;;5.97;2.80;;;;;;;21.31;31.05;103276.19;7311331;19;131359;-63
2022/01/24 12:18:27;;;;;;;3.80;2.72;;;;;;;21.32;31.29;103277.03;7315877;19;130642;-64
2022/01/24 12:21:07;;;;;;;3.85;2.42;;;;;;;21.34;31.21;103277.69;7318148;19;128847;-64
2022/01/24 12:23:39;;;;;;;4.93;2.72;;;;;;;21.34;30.98;103266.53;7317381;19;128983;-64
2022/01/24 12:26:32;;;;;;;4.43;2.92;;;;;;;21.36;31.11;103270.84;7316885;19;133438;-63
2022/01/24 12:29:04;;;;;;;3.40;2.53;;;;;;;21.36;31.12;103272.78;7318127;19;130355;-63
2022/01/24 12:31:45;;;;;;;4.55;2.47;;;;;;;21.37;31.31;103272.56;7319670;19;129623;-63
2022/01/24 12:34:32;;;;;;;4.43;2.70;;;;;;;21.36;30.89;103265.25;7316265;19;128891;-64
2022/01/24 12:37:10;;;;;;;4.28;2.75;;;;;;;21.38;31.16;103259.50;7316469;19;130681;-64
2022/01/24 12:40:12;;;;;;;3.72;2.70;;;;;;;21.36;31.10;103254.13;7312458;19;131068;-64
2022/01/24 12:48:17;;;;;;;10.70;9.60;;;;;;;21.22;28.65;103258.78;7312677;19;131432;-64
2022/01/24 12:50:47;;;;;;;12.00;9.57;;;;;;;21.17;27.66;103261.31;7311829;19;131203;-63
2022/01/24 12:53:15;;;;;;;12.45;8.93;;;;;;;21.13;27.49;103260.03;7314012;19;130186;-63
2022/01/24 12:55:43;;;;;;;13.90;9.18;;;;;;;21.11;27.52;103258.53;7317526;19;128739;-63
2022/01/24 12:58:11;;;;;;;9.63;8.30;;;;;;;21.13;27.56;103268.41;7314677;19;131597;-63
2022/01/24 13:00:44;;;;;;;12.00;7.28;;;;;;;21.18;27.34;103254.69;7316635;19;131111;-63
2022/01/24 13:03:12;;;;;;;9.55;6.55;;;;;;;21.29;27.40;103257.97;7316208;19;129897;-63
2022/01/24 13:05:39;;;;;;;8.60;6.55;;;;;;;21.41;27.41;103258.22;7314955;19;132078;-63
2022/01/24 13:08:06;;;;;;;9.18;6.70;;;;;;;21.48;27.54;103256.31;7317145;19;130643;-63
2022/01/24 13:10:33;;;;;;;7.82;4.95;;;;;;;21.54;27.21;103251.88;7313903;19;130853;-62
2022/01/24 13:13:06;;;;;;;6.10;4.72;;;;;;;21.64;27.53;103266.25;7317241;19;128715;-64
2022/01/24 13:21:22;;;;;;;6.38;4.95;;;;;;;21.86;27.51;103236.28;7315266;19;131126;-64
2022/01/24 13:23:57;;;;;;;5.43;4.85;;;;;;;21.94;27.50;103233.31;7314206;19;130459;-63
2022/01/24 13:26:25;;;;;;;17.65;4.53;;;;;;;22.00;27.36;103227.94;7315972;19;130999;-63
2022/01/24 13:29:00;;;;;;;10.77;5.28;;;;;;;22.05;27.30;103226.22;7312723;19;130723;-63
2022/01/24 13:31:27;;;;;;;6.07;4.85;;;;;;;22.09;26.92;103235.03;7316137;19;130228;-63